Time;durP1;ratioP1;P1;durP2;ratioP2;P2;SDS_P1;SDS_P2;PMS_P1;PMS_P2;Temp;Humidity;BMP_temperature;BMP_pressure;BME280_temperature;BME280_humidity;BME280_pressure;Samples;Min_cycle;Max_cycle;Signal;HPM_P1;HPM_P2
2021/03/30 00:02:16;;;;;;;13.48;2.67;;;19.20;99.90;;;;;;5099932;28;20384;-84
2021/03/30 00:04:43;;;;;;;13.10;3.00;;;19.30;99.90;;;;;;5094483;28;20415;-84
2021/03/30 00:07:10;;;;;;;10.25;2.50;;;19.40;99.90;;;;;;5092551;28;20420;-85
2021/03/30 00:09:37;;;;;;;11.82;2.88;;;19.30;99.90;;;;;;5111301;28;20382;-86
2021/03/30 00:12:05;;;;;;;12.00;2.60;;;19.50;99.90;;;;;;5110344;28;20383;-84
2021/03/30 00:14:32;;;;;;;11.02;3.00;;;19.70;99.90;;;;;;5109097;28;20389;-85
2021/03/30 00:16:59;;;;;;;11.23;2.90;;;20.00;99.90;;;;;;5109590;28;20876;-85
2021/03/30 00:19:26;;;;;;;13.57;3.00;;;20.60;99.90;;;;;;5110089;28;20394;-84
2021/03/30 00:21:53;;;;;;;12.30;2.63;;;21.20;99.50;;;;;;5107018;28;20454;-85
2021/03/30 00:24:20;;;;;;;13.90;3.47;;;21.30;99.20;;;;;;5086782;28;20417;-85
2021/03/30 00:26:47;;;;;;;11.85;2.92;;;21.00;97.80;;;;;;5104605;28;20537;-85
2021/03/30 00:29:15;;;;;;;9.48;2.38;;;20.60;98.90;;;;;;5098907;28;20412;-84
2021/03/30 00:31:42;;;;;;;12.77;2.80;;;20.00;98.80;;;;;;5103511;28;20465;-85
2021/03/30 00:34:09;;;;;;;11.40;2.67;;;19.90;99.00;;;;;;5091470;28;20429;-86
2021/03/30 00:36:36;;;;;;;10.75;2.47;;;19.60;99.90;;;;;;5108165;28;20503;-83
2021/03/30 00:39:05;;;;;;;11.02;2.80;;;19.30;99.90;;;;;;5103772;28;20403;-83
2021/03/30 00:41:40;;;;;;;10.80;2.70;;;19.40;99.90;;;;;;5086091;28;20804;-84
2021/03/30 00:44:13;;;;;;;10.48;3.00;;;19.50;99.90;;;;;;5081179;28;20449;-83
2021/03/30 00:46:43;;;;;;;10.82;2.92;;;19.40;99.80;;;;;;5081480;28;20403;-84
2021/03/30 00:49:14;;;;;;;14.27;3.20;;;19.30;99.90;;;;;;5078974;28;20410;-84
2021/03/30 00:51:42;;;;;;;13.07;3.50;;;19.40;99.90;;;;;;5089662;28;20390;-83
2021/03/30 00:54:09;;;;;;;7.03;2.50;;;19.50;99.90;;;;;;5096822;28;20390;-84
2021/03/30 00:56:37;;;;;;;10.45;2.30;;;19.70;99.70;;;;;;5083192;28;20399;-85
2021/03/30 00:59:05;;;;;;;10.90;2.22;;;19.70;99.50;;;;;;5108898;28;20391;-86
2021/03/30 01:01:33;;;;;;;11.25;2.80;;;19.70;98.80;;;;;;5086600;28;20401;-83
2021/03/30 01:04:00;;;;;;;12.52;2.38;;;19.70;98.50;;;;;;5107083;28;20491;-82
2021/03/30 01:06:28;;;;;;;8.32;2.42;;;20.20;97.60;;;;;;5108904;27;20376;-82
2021/03/30 01:09:30;;;;;;;7.35;2.13;;;20.50;98.60;;;;;;5113573;27;20881;-83
2021/03/30 01:12:15;;;;;;;9.55;2.30;;;21.20;95.20;;;;;;5107035;28;20398;-82
2021/03/30 01:15:05;;;;;;;7.65;2.47;;;21.10;95.60;;;;;;5109595;28;20367;-83
2021/03/30 01:17:53;;;;;;;8.13;2.28;;;21.10;96.80;;;;;;5100021;28;20503;-83
2021/03/30 01:20:57;;;;;;;8.80;2.47;;;20.90;97.10;;;;;;5106822;28;20391;-82
2021/03/30 01:23:33;;;;;;;7.90;2.30;;;21.30;98.20;;;;;;5109281;28;20418;-85
2021/03/30 01:26:13;;;;;;;11.48;2.58;;;21.50;95.40;;;;;;5090727;28;20490;-83
2021/03/30 01:29:11;;;;;;;8.68;2.45;;;21.70;97.80;;;;;;5108634;28;20401;-83
2021/03/30 01:31:41;;;;;;;5.95;2.13;;;21.80;97.20;;;;;;5108851;28;20391;-83
2021/03/30 01:34:12;;;;;;;11.40;2.40;;;21.40;93.60;;;;;;5089411;28;20781;-83
2021/03/30 01:36:41;;;;;;;9.57;2.00;;;21.10;95.10;;;;;;5069634;28;20503;-83
2021/03/30 01:39:12;;;;;;;9.07;2.28;;;21.10;93.00;;;;;;5104177;28;20425;-83
2021/03/30 01:41:43;;;;;;;7.00;2.20;;;21.10;93.60;;;;;;5108507;28;20370;-83
2021/03/30 01:44:13;;;;;;;9.35;2.25;;;20.80;94.20;;;;;;5094112;28;20391;-82
2021/03/30 01:46:44;;;;;;;7.43;2.17;;;20.60;95.10;;;;;;5087350;28;20377;-83
2021/03/30 01:49:13;;;;;;;7.28;2.30;;;20.50;96.70;;;;;;5068460;28;20384;-84
2021/03/30 01:51:42;;;;;;;9.13;2.50;;;20.70;97.50;;;;;;5101879;28;20731;-83
2021/03/30 01:54:12;;;;;;;6.68;2.35;;;21.00;97.90;;;;;;5084028;28;20957;-84
2021/03/30 01:56:42;;;;;;;8.40;2.10;;;21.00;94.20;;;;;;5083453;28;20466;-84
2021/03/30 01:59:13;;;;;;;7.77;2.17;;;20.70;94.20;;;;;;5108419;28;20497;-83
2021/03/30 02:01:41;;;;;;;10.30;2.00;;;20.40;94.30;;;;;;5082262;28;20379;-84
2021/03/30 02:04:08;;;;;;;9.23;2.53;;;20.40;95.40;;;;;;5070304;28;20384;-84
2021/03/30 02:06:39;;;;;;;9.85;2.50;;;20.30;96.50;;;;;;5079989;28;20379;-83
2021/03/30 02:09:09;;;;;;;10.10;2.17;;;20.40;95.60;;;;;;5090694;28;20405;-83
2021/03/30 02:11:44;;;;;;;7.93;2.60;;;20.30;96.50;;;;;;5096376;28;20366;-84
2021/03/30 02:14:13;;;;;;;8.23;2.30;;;20.30;95.40;;;;;;5079099;28;20432;-82
2021/03/30 02:16:55;;;;;;;9.30;2.28;;;20.20;96.00;;;;;;5106574;28;20406;-83
2021/03/30 02:19:33;;;;;;;8.30;2.38;;;20.20;95.90;;;;;;5089946;28;20432;-83
2021/03/30 02:22:08;;;;;;;8.67;2.30;;;20.00;96.10;;;;;;5106924;28;20438;-83
2021/03/30 02:24:38;;;;;;;8.30;2.13;;;19.90;97.40;;;;;;5090931;28;20494;-84
2021/03/30 02:27:10;;;;;;;8.75;2.50;;;19.80;98.60;;;;;;5086930;28;20905;-85
2021/03/30 02:29:40;;;;;;;8.52;2.20;;;19.90;96.90;;;;;;5075689;28;20389;-83
2021/03/30 02:32:14;;;;;;;6.05;1.98;;;20.10;96.70;;;;;;5108554;28;20741;-84
2021/03/30 02:34:42;;;;;;;9.48;2.05;;;20.40;97.40;;;;;;5090417;28;20375;-83
2021/03/30 02:37:11;;;;;;;7.95;1.70;;;20.60;94.90;;;;;;5088083;28;20881;-84
2021/03/30 02:39:41;;;;;;;7.65;1.92;;;20.70;94.30;;;;;;5107654;28;20406;-84
2021/03/30 02:42:09;;;;;;;6.97;1.70;;;20.50;94.30;;;;;;5090972;28;20386;-82
2021/03/30 02:44:39;;;;;;;7.87;1.80;;;20.40;94.60;;;;;;5077626;28;20729;-82
2021/03/30 02:47:08;;;;;;;7.33;1.70;;;20.30;94.10;;;;;;5080837;28;20402;-82
2021/03/30 02:49:36;;;;;;;5.70;1.60;;;20.30;95.40;;;;;;5080605;28;20522;-82
2021/03/30 02:52:05;;;;;;;4.57;1.80;;;20.30;96.70;;;;;;5095078;28;20383;-82
2021/03/30 02:54:32;;;;;;;5.82;1.90;;;20.30;97.20;;;;;;5098180;28;20483;-82
2021/03/30 02:57:00;;;;;;;7.60;1.85;;;20.30;96.40;;;;;;5083957;28;20410;-83
2021/03/30 02:59:31;;;;;;;5.53;2.03;;;20.20;96.10;;;;;;5108403;28;20887;-82
2021/03/30 03:01:59;;;;;;;9.38;2.20;;;20.00;96.40;;;;;;5081301;28;20472;-82
2021/03/30 03:04:27;;;;;;;6.70;1.92;;;20.00;96.10;;;;;;5104321;28;20706;-82
2021/03/30 03:06:55;;;;;;;6.72;1.80;;;19.90;97.00;;;;;;5103493;28;20387;-83
2021/03/30 03:09:24;;;;;;;4.32;1.70;;;20.00;97.80;;;;;;5069310;28;20392;-82
2021/03/30 03:11:52;;;;;;;7.10;1.90;;;20.00;96.90;;;;;;5088263;28;20961;-83
2021/03/30 03:14:21;;;;;;;15.93;2.40;;;20.00;96.70;;;;;;5073780;28;20499;-84
2021/03/30 03:16:48;;;;;;;8.93;1.88;;;19.80;96.20;;;;;;5073072;28;20439;-83
2021/03/30 03:19:17;;;;;;;7.53;2.08;;;19.70;97.50;;;;;;5073165;28;20411;-81
2021/03/30 03:21:45;;;;;;;7.20;1.83;;;19.70;96.70;;;;;;5096727;28;20845;-81
2021/03/30 03:24:13;;;;;;;6.80;1.70;;;19.90;95.80;;;;;;5089956;28;20938;-82
2021/03/30 03:26:41;;;;;;;6.10;2.03;;;19.90;96.60;;;;;;5100687;28;20904;-82
2021/03/30 03:29:14;;;;;;;5.32;1.55;;;20.00;95.60;;;;;;5078637;28;20386;-82
2021/03/30 03:31:46;;;;;;;10.38;2.05;;;20.20;94.60;;;;;;5092058;28;20396;-82
2021/03/30 03:34:14;;;;;;;7.70;1.80;;;20.40;96.20;;;;;;5093018;28;20903;-82
2021/03/30 03:36:44;;;;;;;8.20;1.80;;;20.70;95.40;;;;;;5109246;28;20435;-85
2021/03/30 03:39:17;;;;;;;8.90;1.80;;;20.50;94.30;;;;;;5078227;28;20482;-84
2021/03/30 03:41:47;;;;;;;6.17;1.50;;;20.40;93.60;;;;;;5075383;28;20967;-83
2021/03/30 03:44:14;;;;;;;12.27;1.60;;;20.30;95.10;;;;;;5079344;28;20373;-82
2021/03/30 03:46:41;;;;;;;6.53;1.90;;;20.20;94.70;;;;;;5091035;28;20368;-82
2021/03/30 03:49:10;;;;;;;5.20;1.30;;;20.10;93.50;;;;;;5072906;28;20380;-82
2021/03/30 03:51:47;;;;;;;6.10;1.73;;;20.00;93.90;;;;;;5090206;28;20372;-83
2021/03/30 03:54:18;;;;;;;7.72;1.20;;;19.80;93.00;;;;;;5095948;28;20375;-83
2021/03/30 03:56:50;;;;;;;5.80;1.45;;;19.60;94.60;;;;;;5095825;28;20403;-83
2021/03/30 03:59:22;;;;;;;5.70;1.70;;;19.40;95.20;;;;;;5072753;28;20890;-83
2021/03/30 04:02:10;;;;;;;4.97;1.20;;;19.50;95.60;;;;;;5091689;28;20368;-83
2021/03/30 04:04:48;;;;;;;4.57;1.35;;;19.50;93.60;;;;;;5074372;28;20498;-83
2021/03/30 04:07:31;;;;;;;7.63;0.88;;;19.70;92.10;;;;;;5086493;27;20897;-82
2021/03/30 04:10:00;;;;;;;6.22;1.10;;;19.80;92.00;;;;;;5087265;28;20806;-82
2021/03/30 04:12:30;;;;;;;3.22;1.20;;;19.90;91.90;;;;;;5110499;28;20374;-83
2021/03/30 04:14:58;;;;;;;5.20;1.50;;;20.00;91.00;;;;;;5093319;28;20376;-83
2021/03/30 04:17:27;;;;;;;6.82;1.35;;;20.00;91.80;;;;;;5101488;28;20945;-82
2021/03/30 04:19:54;;;;;;;3.78;1.10;;;20.00;91.90;;;;;;5092458;28;20381;-83
2021/03/30 04:22:21;;;;;;;6.65;1.42;;;19.90;90.10;;;;;;5091164;28;20406;-83
2021/03/30 04:24:47;;;;;;;3.55;1.23;;;19.90;92.10;;;;;;5100835;28;20383;-82
2021/03/30 04:27:15;;;;;;;4.10;1.10;;;20.00;92.40;;;;;;5099889;28;20378;-82
2021/03/30 04:29:43;;;;;;;6.70;1.30;;;20.20;92.60;;;;;;5076110;28;20489;-82
2021/03/30 04:32:10;;;;;;;3.92;1.33;;;20.30;91.50;;;;;;5089458;28;20751;-82
2021/03/30 04:34:38;;;;;;;3.90;1.08;;;20.30;90.60;;;;;;5071219;28;20375;-83
2021/03/30 04:37:05;;;;;;;5.35;1.25;;;20.40;91.50;;;;;;5082090;28;20537;-83
2021/03/30 04:39:32;;;;;;;5.32;1.60;;;20.30;91.50;;;;;;5082821;28;20414;-82
2021/03/30 04:41:59;;;;;;;6.10;1.38;;;20.30;91.10;;;;;;5109751;28;20520;-83
2021/03/30 04:44:26;;;;;;;4.40;1.27;;;20.20;92.40;;;;;;5110192;28;20383;-82
2021/03/30 04:46:53;;;;;;;5.97;1.60;;;20.10;91.70;;;;;;5085400;28;20468;-83
2021/03/30 04:49:20;;;;;;;9.00;1.60;;;20.20;91.40;;;;;;5078388;28;20388;-82
2021/03/30 04:51:47;;;;;;;5.40;1.70;;;20.00;92.60;;;;;;5076327;28;20407;-82
2021/03/30 04:54:14;;;;;;;9.20;1.75;;;20.00;93.50;;;;;;5079883;28;20388;-82
2021/03/30 04:56:42;;;;;;;4.13;1.48;;;20.00;92.50;;;;;;5070804;28;20408;-83
2021/03/30 04:59:09;;;;;;;4.35;1.48;;;20.00;92.50;;;;;;5071367;28;20392;-82
2021/03/30 05:01:36;;;;;;;4.55;1.50;;;20.10;93.30;;;;;;5057834;28;20386;-82
2021/03/30 05:04:03;;;;;;;7.40;1.63;;;20.10;92.40;;;;;;5090237;28;20379;-82
2021/03/30 05:06:30;;;;;;;5.07;1.30;;;20.00;92.10;;;;;;5107840;28;20439;-81
2021/03/30 05:08:57;;;;;;;5.85;1.30;;;19.90;91.70;;;;;;5095959;28;20386;-81
2021/03/30 05:11:24;;;;;;;7.30;1.67;;;20.00;92.20;;;;;;5091829;28;20391;-82
2021/03/30 05:13:51;;;;;;;5.30;0.98;;;20.00;92.90;;;;;;5104118;28;20371;-82
2021/03/30 05:16:18;;;;;;;5.35;1.20;;;19.90;91.70;;;;;;5103459;28;20494;-82
2021/03/30 05:18:45;;;;;;;5.80;1.55;;;19.80;91.80;;;;;;5070115;28;20395;-82
2021/03/30 05:21:13;;;;;;;6.63;1.10;;;19.80;92.40;;;;;;5097689;28;20380;-82
2021/03/30 05:23:40;;;;;;;5.33;1.30;;;19.70;92.40;;;;;;5092370;28;22179;-81
2021/03/30 05:26:07;;;;;;;5.70;1.30;;;19.80;93.40;;;;;;5079539;28;20436;-82
2021/03/30 05:28:34;;;;;;;5.27;1.20;;;19.80;92.90;;;;;;5091429;28;20371;-81
2021/03/30 05:31:01;;;;;;;6.53;1.35;;;19.80;93.40;;;;;;5104695;28;20375;-81
2021/03/30 05:33:28;;;;;;;6.25;1.60;;;19.70;93.30;;;;;;5098401;28;20753;-82
2021/03/30 05:35:55;;;;;;;7.75;1.38;;;19.60;93.80;;;;;;5106454;28;20912;-82
2021/03/30 05:38:22;;;;;;;7.80;1.50;;;19.60;93.60;;;;;;5099345;28;20419;-82
2021/03/30 05:40:49;;;;;;;9.50;1.60;;;19.50;93.40;;;;;;5050125;28;20890;-82
2021/03/30 05:43:18;;;;;;;6.57;1.67;;;19.40;94.70;;;;;;5048748;28;20391;-81
2021/03/30 05:45:45;;;;;;;6.25;1.40;;;19.40;94.90;;;;;;5046969;28;20383;-82
2021/03/30 05:48:15;;;;;;;5.47;1.50;;;19.30;94.70;;;;;;5060642;28;20394;-82
2021/03/30 05:50:43;;;;;;;5.88;1.60;;;19.30;95.40;;;;;;5065293;28;20806;-82
2021/03/30 05:53:12;;;;;;;8.48;1.90;;;19.30;95.50;;;;;;5046632;28;20408;-81
2021/03/30 05:55:43;;;;;;;6.63;1.40;;;19.30;95.80;;;;;;5047133;28;20379;-82
2021/03/30 05:58:11;;;;;;;9.77;2.03;;;19.20;96.30;;;;;;5047774;28;20407;-82
2021/03/30 06:00:44;;;;;;;9.18;1.88;;;19.20;97.00;;;;;;5050682;28;20524;-82
2021/03/30 06:03:15;;;;;;;8.18;1.80;;;19.10;97.00;;;;;;5066878;28;20385;-83
2021/03/30 06:05:42;;;;;;;7.72;2.00;;;19.10;97.60;;;;;;5061685;28;20499;-82
2021/03/30 06:08:09;;;;;;;6.90;1.60;;;19.00;98.00;;;;;;5056653;28;20398;-82
2021/03/30 06:10:37;;;;;;;7.95;2.05;;;19.00;97.90;;;;;;5060279;28;20448;-84
2021/03/30 06:13:05;;;;;;;12.05;2.08;;;19.00;98.00;;;;;;5064194;28;20385;-82
2021/03/30 06:15:34;;;;;;;8.30;1.73;;;18.90;98.10;;;;;;5061256;28;20436;-82
2021/03/30 06:18:16;;;;;;;7.47;1.85;;;18.90;98.80;;;;;;5051571;28;21150;-82
2021/03/30 06:20:43;;;;;;;8.43;1.70;;;18.90;99.20;;;;;;5057472;28;20383;-83
2021/03/30 06:23:10;;;;;;;10.15;2.08;;;18.90;99.00;;;;;;5048064;28;20392;-82
2021/03/30 06:25:49;;;;;;;9.05;2.00;;;18.80;99.00;;;;;;5055189;28;20384;-82
2021/03/30 06:28:27;;;;;;;9.53;2.23;;;18.80;99.20;;;;;;5054523;28;20479;-82
2021/03/30 06:31:04;;;;;;;10.75;1.77;;;18.80;99.90;;;;;;5066518;28;20375;-82
2021/03/30 06:33:33;;;;;;;11.93;2.20;;;18.70;99.90;;;;;;5054329;28;20481;-82
2021/03/30 06:36:19;;;;;;;7.28;1.92;;;18.70;99.90;;;;;;5057076;28;20386;-82
2021/03/30 06:39:03;;;;;;;10.98;2.00;;;18.60;99.90;;;;;;5053444;28;20399;-81
2021/03/30 06:41:48;;;;;;;9.00;2.28;;;18.60;99.90;;;;;;5063193;28;20771;-82
2021/03/30 06:44:25;;;;;;;10.70;2.10;;;18.50;99.90;;;;;;5058127;28;20403;-82
2021/03/30 06:47:12;;;;;;;10.30;2.22;;;18.40;99.90;;;;;;5067462;28;20482;-82
2021/03/30 06:50:01;;;;;;;9.10;2.00;;;18.30;99.90;;;;;;5068519;28;20787;-82
2021/03/30 06:52:35;;;;;;;10.57;2.13;;;18.20;99.90;;;;;;5068179;28;20447;-81
2021/03/30 06:55:06;;;;;;;10.77;2.13;;;18.20;99.90;;;;;;5069867;28;20404;-82
2021/03/30 06:57:48;;;;;;;8.05;1.83;;;18.20;99.90;;;;;;5067556;28;20490;-82
2021/03/30 07:00:25;;;;;;;9.10;2.38;;;18.20;99.90;;;;;;5068739;28;20378;-82
2021/03/30 07:02:56;;;;;;;10.68;2.08;;;18.20;99.90;;;;;;5064132;28;20397;-84
2021/03/30 07:05:39;;;;;;;9.52;1.95;;;18.10;99.90;;;;;;5078851;28;20425;-83
2021/03/30 07:08:08;;;;;;;12.07;2.03;;;18.00;99.90;;;;;;5083629;28;20382;-87
2021/03/30 07:10:41;;;;;;;7.05;2.00;;;18.00;99.90;;;;;;5074396;28;20870;-83
2021/03/30 07:13:10;;;;;;;8.95;2.45;;;17.90;99.90;;;;;;5050617;28;20498;-83
2021/03/30 07:15:37;;;;;;;10.52;1.98;;;17.80;99.90;;;;;;5059941;28;20377;-85
2021/03/30 07:18:26;;;;;;;10.60;2.40;;;17.80;99.90;;;;;;5062111;28;20437;-82
2021/03/30 07:21:01;;;;;;;11.50;2.37;;;17.70;99.90;;;;;;5081530;28;20386;-83
2021/03/30 07:23:35;;;;;;;9.00;1.80;;;17.60;99.90;;;;;;5085965;28;20804;-82
2021/03/30 07:26:21;;;;;;;8.20;1.77;;;17.60;99.90;;;;;;5068258;28;20387;-83
2021/03/30 07:29:03;;;;;;;8.55;1.85;;;17.60;99.90;;;;;;5054714;28;20395;-82
2021/03/30 07:31:58;;;;;;;9.75;2.17;;;17.60;99.90;;;;;;5052361;28;20380;-83
2021/03/30 07:35:00;;;;;;;7.88;2.20;;;17.60;99.90;;;;;;5051980;28;20414;-82
2021/03/30 07:37:48;;;;;;;11.02;2.05;;;17.50;99.90;;;;;;5069526;28;20410;-82
2021/03/30 07:40:17;;;;;;;7.80;2.10;;;17.40;99.90;;;;;;5070119;28;20398;-83
2021/03/30 07:42:46;;;;;;;13.20;2.20;;;17.30;99.90;;;;;;5098296;28;20481;-84
2021/03/30 07:45:15;;;;;;;9.50;2.20;;;17.30;99.90;;;;;;5086901;28;20964;-82
2021/03/30 07:47:43;;;;;;;9.90;2.05;;;17.20;99.90;;;;;;5088472;28;20401;-83
2021/03/30 07:50:11;;;;;;;10.13;2.00;;;17.20;99.90;;;;;;5084569;28;20396;-81
2021/03/30 07:52:46;;;;;;;7.53;1.97;;;17.10;99.90;;;;;;5090714;28;20962;-82
2021/03/30 07:55:22;;;;;;;7.47;1.80;;;17.00;99.90;;;;;;5089765;28;21335;-82
2021/03/30 07:58:02;;;;;;;8.35;1.85;;;16.90;99.90;;;;;;5088402;28;20412;-82
2021/03/30 08:00:52;;;;;;;10.30;2.38;;;17.00;99.90;;;;;;5089568;28;20879;-83
2021/03/30 08:03:26;;;;;;;9.52;1.92;;;16.90;99.90;;;;;;5104523;28;20396;-82
2021/03/30 08:06:16;;;;;;;8.23;1.70;;;16.90;99.90;;;;;;5084704;28;20449;-83
2021/03/30 08:08:52;;;;;;;11.07;2.33;;;16.80;99.90;;;;;;5084728;28;20380;-82
2021/03/30 08:11:52;;;;;;;7.90;1.80;;;16.70;99.90;;;;;;5087258;28;20400;-82
2021/03/30 08:14:21;;;;;;;8.70;1.40;;;16.70;99.90;;;;;;5087952;28;20396;-83
2021/03/30 08:16:52;;;;;;;8.07;1.65;;;16.70;99.90;;;;;;5087837;28;20759;-83
2021/03/30 08:19:20;;;;;;;7.38;2.00;;;16.80;99.90;;;;;;5075148;28;20452;-84
2021/03/30 08:22:01;;;;;;;10.43;2.00;;;16.80;99.90;;;;;;5086667;28;20718;-83
2021/03/30 08:24:46;;;;;;;7.30;1.67;;;16.80;99.90;;;;;;5102905;28;20409;-83
2021/03/30 08:27:31;;;;;;;8.20;2.08;;;16.80;99.90;;;;;;5086043;28;20508;-83
2021/03/30 08:30:13;;;;;;;6.38;1.77;;;16.70;99.90;;;;;;5084855;28;20389;-83
2021/03/30 08:32:48;;;;;;;10.20;1.97;;;16.70;99.90;;;;;;5086577;28;20416;-83
2021/03/30 08:35:31;;;;;;;6.38;2.05;;;16.70;99.90;;;;;;5104134;28;20391;-85
2021/03/30 08:37:59;;;;;;;8.30;1.70;;;16.60;99.90;;;;;;5100535;28;20406;-82
2021/03/30 08:40:35;;;;;;;11.15;2.17;;;16.60;99.90;;;;;;5094899;28;20386;-83
2021/03/30 08:43:20;;;;;;;6.22;1.77;;;16.60;99.90;;;;;;5094077;28;20516;-82
2021/03/30 08:46:01;;;;;;;11.60;1.92;;;16.60;99.90;;;;;;5081913;28;20871;-81
2021/03/30 08:48:38;;;;;;;6.57;1.80;;;16.60;99.90;;;;;;5080772;28;20406;-82
2021/03/30 08:51:08;;;;;;;7.18;2.03;;;16.50;99.90;;;;;;5086101;28;20474;-82
2021/03/30 08:53:36;;;;;;;11.18;2.10;;;16.50;99.90;;;;;;5091138;28;20390;-83
2021/03/30 08:56:09;;;;;;;9.32;1.90;;;16.40;99.90;;;;;;5087776;28;20409;-83
2021/03/30 08:58:43;;;;;;;9.25;1.90;;;16.30;99.90;;;;;;5102724;28;20461;-84
2021/03/30 09:01:10;;;;;;;7.85;2.28;;;16.30;99.90;;;;;;5075624;28;20394;-84
2021/03/30 09:03:38;;;;;;;9.05;1.80;;;16.30;99.90;;;;;;5103053;28;20482;-83
2021/03/30 09:06:05;;;;;;;9.75;1.90;;;16.20;99.90;;;;;;5088533;28;20749;-84
2021/03/30 09:08:43;;;;;;;7.82;1.77;;;16.20;99.90;;;;;;5087075;28;21649;-82
2021/03/30 09:11:26;;;;;;;7.07;1.98;;;16.20;99.90;;;;;;5102008;28;21242;-83
2021/03/30 09:14:08;;;;;;;6.50;1.77;;;16.10;99.90;;;;;;5086646;27;20401;-83
2021/03/30 09:16:37;;;;;;;9.35;2.20;;;16.10;99.90;;;;;;5086620;28;20378;-83
2021/03/30 09:19:26;;;;;;;8.80;2.20;;;16.10;99.90;;;;;;5080213;28;20454;-83
2021/03/30 09:22:02;;;;;;;8.18;1.75;;;16.10;99.90;;;;;;5084966;28;20443;-83
2021/03/30 09:24:42;;;;;;;8.93;2.17;;;16.10;99.90;;;;;;5086283;28;20458;-84
2021/03/30 09:27:09;;;;;;;9.40;2.20;;;16.00;99.90;;;;;;5100921;28;20387;-84
2021/03/30 09:29:36;;;;;;;9.27;2.30;;;15.90;99.90;;;;;;5085966;28;20501;-83
2021/03/30 09:32:11;;;;;;;7.78;1.77;;;15.90;99.90;;;;;;5097298;28;20375;-83
2021/03/30 09:34:39;;;;;;;8.82;2.00;;;15.80;99.90;;;;;;5086205;28;20394;-83
2021/03/30 09:37:06;;;;;;;9.65;2.35;;;15.80;99.90;;;;;;5080182;28;20406;-83
2021/03/30 09:39:36;;;;;;;12.45;2.28;;;15.80;99.90;;;;;;5087728;28;20422;-83
2021/03/30 09:42:05;;;;;;;7.75;2.30;;;15.70;99.90;;;;;;5104486;28;20370;-83
2021/03/30 09:44:44;;;;;;;10.80;2.50;;;15.70;99.90;;;;;;5083441;28;20482;-84
2021/03/30 09:47:15;;;;;;;7.68;2.05;;;15.60;99.90;;;;;;5086528;28;20451;-84
2021/03/30 09:49:43;;;;;;;9.82;2.45;;;15.60;99.90;;;;;;5102728;28;20413;-83
2021/03/30 09:52:10;;;;;;;7.80;2.17;;;15.50;99.90;;;;;;5102880;28;20591;-84
2021/03/30 09:54:43;;;;;;;12.10;2.42;;;15.50;99.90;;;;;;5104764;28;20395;-83
2021/03/30 09:57:21;;;;;;;10.07;2.45;;;15.40;99.90;;;;;;5086615;28;20405;-83
2021/03/30 09:59:50;;;;;;;8.90;2.53;;;15.30;99.90;;;;;;5085572;28;20399;-83
2021/03/30 10:02:19;;;;;;;8.82;2.10;;;15.30;99.90;;;;;;5086912;28;20393;-84
2021/03/30 10:04:51;;;;;;;10.25;2.70;;;15.20;99.90;;;;;;5087012;28;20478;-83
2021/03/30 10:07:20;;;;;;;7.88;2.25;;;15.20;99.90;;;;;;5104942;28;20390;-83
2021/03/30 10:10:06;;;;;;;8.80;2.33;;;15.20;99.90;;;;;;5099888;28;20394;-84
2021/03/30 10:12:39;;;;;;;10.53;2.30;;;15.20;99.90;;;;;;5107089;28;21273;-83
2021/03/30 10:15:07;;;;;;;9.75;2.42;;;15.10;99.90;;;;;;5087246;28;20416;-81
2021/03/30 10:17:34;;;;;;;10.02;2.25;;;15.10;99.90;;;;;;5103647;28;20398;-83
2021/03/30 10:20:03;;;;;;;10.25;2.17;;;15.10;99.90;;;;;;5098825;28;20384;-83
2021/03/30 10:22:33;;;;;;;10.02;2.22;;;15.10;99.90;;;;;;5095712;28;20393;-82
2021/03/30 10:25:20;;;;;;;9.48;2.20;;;15.10;99.90;;;;;;5105300;28;20391;-83
2021/03/30 10:27:57;;;;;;;7.23;2.10;;;15.10;99.90;;;;;;5104162;28;20436;-82
2021/03/30 10:30:30;;;;;;;9.13;2.30;;;15.10;99.90;;;;;;5091152;28;20386;-83
2021/03/30 10:32:59;;;;;;;11.75;2.45;;;15.10;99.90;;;;;;5108760;28;20727;-83
2021/03/30 10:35:27;;;;;;;8.43;2.20;;;15.00;99.90;;;;;;5107204;28;20885;-83
2021/03/30 10:37:54;;;;;;;11.10;2.88;;;14.90;99.90;;;;;;5088645;28;20406;-83
2021/03/30 10:40:37;;;;;;;11.25;2.53;;;14.90;99.90;;;;;;5089243;28;20485;-82
2021/03/30 10:43:24;;;;;;;8.30;2.10;;;15.00;99.90;;;;;;5087353;28;20789;-83
2021/03/30 10:45:53;;;;;;;13.10;2.65;;;15.00;99.90;;;;;;5107436;28;20386;-84
2021/03/30 10:48:21;;;;;;;12.98;2.50;;;15.00;99.90;;;;;;5088910;28;20403;-82
2021/03/30 10:50:48;;;;;;;11.35;2.70;;;15.00;99.90;;;;;;5086438;28;20390;-82
2021/03/30 10:53:15;;;;;;;9.88;2.40;;;15.00;99.90;;;;;;5108096;28;20893;-82
2021/03/30 10:55:43;;;;;;;10.65;2.70;;;15.00;99.90;;;;;;5089182;28;20452;-82
2021/03/30 10:58:12;;;;;;;11.32;2.55;;;15.00;99.90;;;;;;5089403;28;20795;-82
2021/03/30 11:00:39;;;;;;;13.23;2.70;;;15.00;99.90;;;;;;5087645;28;20395;-82
2021/03/30 11:03:07;;;;;;;12.80;2.70;;;15.10;99.90;;;;;;5083397;28;20952;-83
2021/03/30 11:05:37;;;;;;;12.90;2.70;;;15.00;99.90;;;;;;5071170;28;20411;-82
2021/03/30 11:08:05;;;;;;;11.60;2.60;;;15.00;99.90;;;;;;5107926;28;20721;-82
2021/03/30 11:10:34;;;;;;;15.45;3.15;;;15.00;99.90;;;;;;5110770;28;20471;-82
2021/03/30 11:13:00;;;;;;;12.82;2.50;;;14.90;99.90;;;;;;5093982;28;20399;-83
2021/03/30 11:15:27;;;;;;;12.80;3.13;;;14.90;99.90;;;;;;5092480;28;20391;-83
2021/03/30 11:17:54;;;;;;;13.05;2.90;;;14.80;99.90;;;;;;5093319;28;20402;-81
2021/03/30 11:20:23;;;;;;;15.40;3.37;;;14.80;99.90;;;;;;5091890;28;20393;-82
2021/03/30 11:22:50;;;;;;;11.77;2.47;;;14.80;99.90;;;;;;5111387;28;20386;-81
2021/03/30 11:25:17;;;;;;;12.05;2.90;;;14.80;99.90;;;;;;5111857;28;20389;-82
2021/03/30 11:27:47;;;;;;;9.60;2.63;;;14.70;99.90;;;;;;5111116;28;20407;-82
2021/03/30 11:30:20;;;;;;;13.27;3.05;;;14.80;99.90;;;;;;5110163;28;20400;-81
2021/03/30 11:33:07;;;;;;;11.70;2.85;;;14.70;99.90;;;;;;5106763;28;20430;-80
2021/03/30 11:35:44;;;;;;;10.32;3.17;;;14.70;99.90;;;;;;5099946;28;20513;-82
2021/03/30 11:38:12;;;;;;;13.25;3.05;;;14.70;99.90;;;;;;5093030;28;20435;-78
2021/03/30 11:40:40;;;;;;;12.75;3.35;;;14.70;99.90;;;;;;5109837;28;20395;-80
2021/03/30 11:43:07;;;;;;;8.90;2.85;;;14.80;99.90;;;;;;5111489;28;20390;-80
2021/03/30 11:45:35;;;;;;;13.93;3.10;;;14.80;99.90;;;;;;5110038;28;20391;-80
2021/03/30 11:48:03;;;;;;;15.10;3.08;;;14.80;99.90;;;;;;5090748;28;20481;-80
2021/03/30 11:50:31;;;;;;;12.38;3.10;;;14.80;99.90;;;;;;5099691;28;20388;-80
2021/03/30 11:52:58;;;;;;;11.52;2.85;;;14.70;99.90;;;;;;5104448;28;20473;-80
2021/03/30 11:55:26;;;;;;;12.23;2.75;;;14.80;99.90;;;;;;5091607;28;20390;-80
2021/03/30 11:57:54;;;;;;;13.83;3.40;;;14.70;99.90;;;;;;5108941;28;20411;-81
2021/03/30 12:00:22;;;;;;;12.53;3.20;;;14.70;99.90;;;;;;5089916;28;20473;-79
2021/03/30 12:02:49;;;;;;;11.05;2.40;;;14.70;99.90;;;;;;5101843;27;20750;-79
2021/03/30 12:05:20;;;;;;;14.05;2.80;;;14.70;99.90;;;;;;5107589;28;20398;-80
2021/03/30 12:07:48;;;;;;;10.95;2.40;;;14.70;99.90;;;;;;5100023;28;20412;-79
2021/03/30 12:10:15;;;;;;;12.45;3.20;;;14.60;99.90;;;;;;5086272;28;20469;-80
2021/03/30 12:12:42;;;;;;;13.03;2.70;;;14.60;99.90;;;;;;5107509;28;20896;-80
2021/03/30 12:15:11;;;;;;;13.95;2.67;;;14.60;99.90;;;;;;5100959;27;20908;-80
2021/03/30 12:17:39;;;;;;;10.30;2.35;;;14.60;99.90;;;;;;5107240;27;20405;-82
2021/03/30 12:20:09;;;;;;;9.73;2.63;;;14.70;99.90;;;;;;5100256;28;20378;-82
2021/03/30 12:22:36;;;;;;;13.25;2.60;;;14.60;99.90;;;;;;5102537;28;20395;-83
2021/03/30 12:25:04;;;;;;;11.88;2.28;;;14.70;99.90;;;;;;5087558;28;20401;-82
2021/03/30 12:27:32;;;;;;;13.20;2.72;;;14.70;99.90;;;;;;5089500;28;20386;-82
2021/03/30 12:29:59;;;;;;;12.13;2.72;;;14.60;99.90;;;;;;5101742;28;20395;-82
2021/03/30 12:32:26;;;;;;;15.85;3.47;;;14.60;99.90;;;;;;5106796;27;20843;-83
2021/03/30 12:34:53;;;;;;;10.82;3.10;;;14.60;99.90;;;;;;5106202;28;20393;-82
2021/03/30 12:37:20;;;;;;;15.70;3.03;;;14.60;99.90;;;;;;5104161;27;20407;-82
2021/03/30 12:39:47;;;;;;;11.70;2.75;;;14.50;99.90;;;;;;5098043;27;20424;-80
2021/03/30 12:42:14;;;;;;;9.98;2.67;;;14.50;99.90;;;;;;5102773;28;20451;-81
2021/03/30 12:44:41;;;;;;;8.88;2.20;;;14.50;99.90;;;;;;5102613;28;20394;-80
2021/03/30 12:47:08;;;;;;;14.35;2.63;;;14.50;99.90;;;;;;5105776;28;20429;-80
2021/03/30 12:49:35;;;;;;;14.57;3.08;;;14.50;99.90;;;;;;5107406;28;20401;-80
2021/03/30 12:52:02;;;;;;;11.38;3.17;;;14.60;99.90;;;;;;5076990;28;20432;-80
2021/03/30 12:54:29;;;;;;;13.07;3.20;;;14.60;99.90;;;;;;5105011;27;20436;-80
2021/03/30 12:56:56;;;;;;;11.53;2.87;;;14.70;99.90;;;;;;5109827;27;20422;-80
2021/03/30 12:59:23;;;;;;;10.70;2.88;;;14.70;99.90;;;;;;5087309;28;20410;-81
2021/03/30 13:01:50;;;;;;;13.77;3.00;;;14.80;99.90;;;;;;5103441;27;20414;-80
2021/03/30 13:04:17;;;;;;;13.23;2.78;;;14.80;99.90;;;;;;5102952;27;20394;-81
2021/03/30 13:06:44;;;;;;;9.63;2.60;;;14.80;99.90;;;;;;5101385;28;20874;-81